sensor_id;sensor_type;location;lat;lon;timestamp;P1;durP1;ratioP1;P2;durP2;ratioP2
12597;SDS011;6364;53.590;9.956;2023-07-22T00:00:12;16.08;;;9.98;;
12597;SDS011;6364;53.590;9.956;2023-07-22T00:02:40;17.73;;;10.48;;
12597;SDS011;6364;53.590;9.956;2023-07-22T00:05:06;16.38;;;9.95;;
12597;SDS011;6364;53.590;9.956;2023-07-22T00:07:32;19.27;;;11.05;;
12597;SDS011;6364;53.590;9.956;2023-07-22T00:09:57;16.92;;;10.48;;
12597;SDS011;6364;53.590;9.956;2023-07-22T00:12:22;18.63;;;10.32;;
12597;SDS011;6364;53.590;9.956;2023-07-22T00:14:50;19.70;;;10.68;;
12597;SDS011;6364;53.590;9.956;2023-07-22T00:17:16;19.83;;;10.93;;
12597;SDS011;6364;53.590;9.956;2023-07-22T00:19:41;17.20;;;11.52;;
12597;SDS011;6364;53.590;9.956;2023-07-22T00:22:07;21.85;;;10.82;;
12597;SDS011;6364;53.590;9.956;2023-07-22T00:24:32;20.00;;;10.77;;
12597;SDS011;6364;53.590;9.956;2023-07-22T00:26:58;17.40;;;10.85;;
12597;SDS011;6364;53.590;9.956;2023-07-22T00:29:23;18.65;;;11.57;;
12597;SDS011;6364;53.590;9.956;2023-07-22T00:31:49;17.98;;;10.75;;
12597;SDS011;6364;53.590;9.956;2023-07-22T00:34:14;20.60;;;11.32;;
12597;SDS011;6364;53.590;9.956;2023-07-22T00:36:39;17.38;;;10.52;;
12597;SDS011;6364;53.590;9.956;2023-07-22T00:39:05;19.45;;;10.80;;
12597;SDS011;6364;53.590;9.956;2023-07-22T00:41:30;19.45;;;11.45;;
12597;SDS011;6364;53.590;9.956;2023-07-22T00:43:56;17.52;;;11.23;;
12597;SDS011;6364;53.590;9.956;2023-07-22T00:46:21;18.40;;;11.32;;
12597;SDS011;6364;53.590;9.956;2023-07-22T00:48:47;24.40;;;11.40;;
12597;SDS011;6364;53.590;9.956;2023-07-22T00:51:12;20.00;;;11.38;;
12597;SDS011;6364;53.590;9.956;2023-07-22T00:53:38;19.05;;;11.23;;
12597;SDS011;6364;53.590;9.956;2023-07-22T00:56:03;19.48;;;11.38;;
12597;SDS011;6364;53.590;9.956;2023-07-22T00:58:29;17.95;;;11.43;;
12597;SDS011;6364;53.590;9.956;2023-07-22T01:00:55;22.17;;;12.05;;
12597;SDS011;6364;53.590;9.956;2023-07-22T01:03:20;19.67;;;11.13;;
12597;SDS011;6364;53.590;9.956;2023-07-22T01:05:46;20.58;;;12.27;;
12597;SDS011;6364;53.590;9.956;2023-07-22T01:08:12;19.85;;;11.30;;
12597;SDS011;6364;53.590;9.956;2023-07-22T01:10:38;21.17;;;12.10;;
12597;SDS011;6364;53.590;9.956;2023-07-22T01:13:04;21.23;;;11.30;;
12597;SDS011;6364;53.590;9.956;2023-07-22T01:15:29;17.85;;;11.27;;
12597;SDS011;6364;53.590;9.956;2023-07-22T01:17:55;19.85;;;11.65;;
12597;SDS011;6364;53.590;9.956;2023-07-22T01:20:21;21.98;;;11.07;;
12597;SDS011;6364;53.590;9.956;2023-07-22T01:22:51;19.17;;;11.07;;
12597;SDS011;6364;53.590;9.956;2023-07-22T01:25:17;18.60;;;11.50;;
12597;SDS011;6364;53.590;9.956;2023-07-22T01:27:44;21.65;;;11.82;;
12597;SDS011;6364;53.590;9.956;2023-07-22T01:30:10;23.77;;;11.07;;
12597;SDS011;6364;53.590;9.956;2023-07-22T01:32:35;22.23;;;11.30;;
12597;SDS011;6364;53.590;9.956;2023-07-22T01:35:00;23.48;;;11.40;;
12597;SDS011;6364;53.590;9.956;2023-07-22T01:37:26;18.10;;;9.73;;
12597;SDS011;6364;53.590;9.956;2023-07-22T01:39:51;25.00;;;10.85;;
12597;SDS011;6364;53.590;9.956;2023-07-22T01:42:18;23.55;;;10.77;;
12597;SDS011;6364;53.590;9.956;2023-07-22T01:44:43;18.33;;;10.48;;
12597;SDS011;6364;53.590;9.956;2023-07-22T01:47:08;20.23;;;11.35;;
12597;SDS011;6364;53.590;9.956;2023-07-22T01:49:33;21.25;;;11.10;;
12597;SDS011;6364;53.590;9.956;2023-07-22T01:51:59;19.33;;;10.18;;
12597;SDS011;6364;53.590;9.956;2023-07-22T01:54:25;21.63;;;10.77;;
12597;SDS011;6364;53.590;9.956;2023-07-22T01:56:50;18.63;;;10.55;;
12597;SDS011;6364;53.590;9.956;2023-07-22T01:59:16;18.05;;;10.13;;
12597;SDS011;6364;53.590;9.956;2023-07-22T02:01:41;18.52;;;9.82;;
12597;SDS011;6364;53.590;9.956;2023-07-22T02:04:06;20.50;;;10.40;;
12597;SDS011;6364;53.590;9.956;2023-07-22T02:06:32;18.48;;;10.40;;
12597;SDS011;6364;53.590;9.956;2023-07-22T02:08:57;17.33;;;9.93;;
12597;SDS011;6364;53.590;9.956;2023-07-22T02:11:23;19.05;;;10.23;;
12597;SDS011;6364;53.590;9.956;2023-07-22T02:13:48;17.95;;;9.90;;
12597;SDS011;6364;53.590;9.956;2023-07-22T02:16:13;22.48;;;10.57;;
12597;SDS011;6364;53.590;9.956;2023-07-22T02:18:39;22.00;;;9.95;;
12597;SDS011;6364;53.590;9.956;2023-07-22T02:21:04;19.13;;;9.68;;
12597;SDS011;6364;53.590;9.956;2023-07-22T02:23:29;26.25;;;10.98;;
12597;SDS011;6364;53.590;9.956;2023-07-22T02:25:55;18.05;;;10.25;;
12597;SDS011;6364;53.590;9.956;2023-07-22T02:28:20;19.15;;;9.73;;
12597;SDS011;6364;53.590;9.956;2023-07-22T02:30:47;22.52;;;10.48;;
12597;SDS011;6364;53.590;9.956;2023-07-22T02:33:13;17.65;;;9.48;;
12597;SDS011;6364;53.590;9.956;2023-07-22T02:35:38;21.23;;;9.95;;
12597;SDS011;6364;53.590;9.956;2023-07-22T02:38:03;24.23;;;10.43;;
12597;SDS011;6364;53.590;9.956;2023-07-22T02:40:29;28.52;;;9.75;;
12597;SDS011;6364;53.590;9.956;2023-07-22T02:42:54;23.20;;;10.88;;
12597;SDS011;6364;53.590;9.956;2023-07-22T02:45:19;21.88;;;10.35;;
12597;SDS011;6364;53.590;9.956;2023-07-22T02:47:45;24.25;;;11.13;;
12597;SDS011;6364;53.590;9.956;2023-07-22T02:50:10;18.55;;;10.57;;
12597;SDS011;6364;53.590;9.956;2023-07-22T02:52:35;22.70;;;10.63;;
12597;SDS011;6364;53.590;9.956;2023-07-22T02:57:30;22.13;;;9.82;;
12597;SDS011;6364;53.590;9.956;2023-07-22T02:59:56;20.98;;;10.82;;
12597;SDS011;6364;53.590;9.956;2023-07-22T03:02:21;20.40;;;10.23;;
12597;SDS011;6364;53.590;9.956;2023-07-22T03:04:47;21.40;;;10.70;;
12597;SDS011;6364;53.590;9.956;2023-07-22T03:07:12;22.38;;;10.65;;
12597;SDS011;6364;53.590;9.956;2023-07-22T03:09:37;24.48;;;11.02;;
12597;SDS011;6364;53.590;9.956;2023-07-22T03:12:02;21.48;;;10.07;;
12597;SDS011;6364;53.590;9.956;2023-07-22T03:14:28;22.80;;;10.43;;
12597;SDS011;6364;53.590;9.956;2023-07-22T03:16:54;21.35;;;11.15;;
12597;SDS011;6364;53.590;9.956;2023-07-22T03:19:19;21.67;;;10.50;;
12597;SDS011;6364;53.590;9.956;2023-07-22T03:21:44;24.15;;;11.15;;
12597;SDS011;6364;53.590;9.956;2023-07-22T03:24:10;22.00;;;10.20;;
12597;SDS011;6364;53.590;9.956;2023-07-22T03:26:35;24.60;;;11.00;;
12597;SDS011;6364;53.590;9.956;2023-07-22T03:29:00;18.92;;;9.73;;
12597;SDS011;6364;53.590;9.956;2023-07-22T03:31:26;25.23;;;10.65;;
12597;SDS011;6364;53.590;9.956;2023-07-22T03:33:51;19.38;;;10.40;;
12597;SDS011;6364;53.590;9.956;2023-07-22T03:36:17;17.88;;;10.00;;
12597;SDS011;6364;53.590;9.956;2023-07-22T03:38:42;20.65;;;10.98;;
12597;SDS011;6364;53.590;9.956;2023-07-22T03:41:07;23.40;;;10.70;;
12597;SDS011;6364;53.590;9.956;2023-07-22T03:43:33;20.73;;;10.73;;
12597;SDS011;6364;53.590;9.956;2023-07-22T03:45:58;21.75;;;10.23;;
12597;SDS011;6364;53.590;9.956;2023-07-22T03:48:23;19.17;;;9.88;;
12597;SDS011;6364;53.590;9.956;2023-07-22T03:50:49;19.63;;;9.80;;
12597;SDS011;6364;53.590;9.956;2023-07-22T03:53:14;21.27;;;10.85;;
12597;SDS011;6364;53.590;9.956;2023-07-22T03:55:39;18.73;;;10.15;;
12597;SDS011;6364;53.590;9.956;2023-07-22T03:58:05;20.75;;;9.88;;
12597;SDS011;6364;53.590;9.956;2023-07-22T04:00:31;20.73;;;9.88;;
12597;SDS011;6364;53.590;9.956;2023-07-22T04:02:56;20.15;;;9.55;;
12597;SDS011;6364;53.590;9.956;2023-07-22T04:05:22;20.52;;;10.13;;
12597;SDS011;6364;53.590;9.956;2023-07-22T04:07:47;20.95;;;10.02;;
12597;SDS011;6364;53.590;9.956;2023-07-22T04:10:12;21.45;;;10.25;;
12597;SDS011;6364;53.590;9.956;2023-07-22T04:12:38;20.77;;;10.38;;
12597;SDS011;6364;53.590;9.956;2023-07-22T04:15:03;20.77;;;8.85;;
12597;SDS011;6364;53.590;9.956;2023-07-22T04:17:29;18.73;;;10.10;;
12597;SDS011;6364;53.590;9.956;2023-07-22T04:19:54;16.40;;;9.60;;
12597;SDS011;6364;53.590;9.956;2023-07-22T04:22:20;23.02;;;10.07;;
12597;SDS011;6364;53.590;9.956;2023-07-22T04:24:45;18.60;;;10.90;;
12597;SDS011;6364;53.590;9.956;2023-07-22T04:27:13;22.10;;;10.70;;
12597;SDS011;6364;53.590;9.956;2023-07-22T04:29:38;18.40;;;9.75;;
12597;SDS011;6364;53.590;9.956;2023-07-22T04:32:04;18.35;;;9.40;;
12597;SDS011;6364;53.590;9.956;2023-07-22T04:34:30;18.50;;;9.20;;
12597;SDS011;6364;53.590;9.956;2023-07-22T04:36:56;15.63;;;8.63;;
12597;SDS011;6364;53.590;9.956;2023-07-22T04:39:21;22.13;;;10.57;;
12597;SDS011;6364;53.590;9.956;2023-07-22T04:41:47;18.23;;;9.80;;
12597;SDS011;6364;53.590;9.956;2023-07-22T04:44:12;16.85;;;9.85;;
12597;SDS011;6364;53.590;9.956;2023-07-22T04:46:37;17.52;;;9.07;;
12597;SDS011;6364;53.590;9.956;2023-07-22T04:49:03;18.95;;;9.45;;
12597;SDS011;6364;53.590;9.956;2023-07-22T04:51:28;21.17;;;10.50;;
12597;SDS011;6364;53.590;9.956;2023-07-22T04:53:53;23.30;;;9.80;;
12597;SDS011;6364;53.590;9.956;2023-07-22T04:56:19;19.73;;;9.80;;
12597;SDS011;6364;53.590;9.956;2023-07-22T04:58:44;14.15;;;8.80;;
12597;SDS011;6364;53.590;9.956;2023-07-22T05:01:09;19.63;;;9.77;;
12597;SDS011;6364;53.590;9.956;2023-07-22T05:03:35;17.73;;;9.05;;
12597;SDS011;6364;53.590;9.956;2023-07-22T05:06:00;23.27;;;10.10;;
12597;SDS011;6364;53.590;9.956;2023-07-22T05:08:26;17.88;;;9.20;;
12597;SDS011;6364;53.590;9.956;2023-07-22T05:10:51;18.27;;;9.63;;
12597;SDS011;6364;53.590;9.956;2023-07-22T05:13:17;22.38;;;9.13;;
12597;SDS011;6364;53.590;9.956;2023-07-22T05:15:42;16.73;;;9.27;;
12597;SDS011;6364;53.590;9.956;2023-07-22T05:18:08;16.02;;;9.35;;
12597;SDS011;6364;53.590;9.956;2023-07-22T05:20:33;15.52;;;8.80;;
12597;SDS011;6364;53.590;9.956;2023-07-22T05:22:58;23.17;;;9.40;;
12597;SDS011;6364;53.590;9.956;2023-07-22T05:25:24;15.70;;;8.40;;
12597;SDS011;6364;53.590;9.956;2023-07-22T05:27:49;18.20;;;9.32;;
12597;SDS011;6364;53.590;9.956;2023-07-22T05:30:14;16.38;;;8.27;;
12597;SDS011;6364;53.590;9.956;2023-07-22T05:32:40;20.02;;;9.20;;
12597;SDS011;6364;53.590;9.956;2023-07-22T05:35:05;20.85;;;8.80;;
12597;SDS011;6364;53.590;9.956;2023-07-22T05:37:31;17.25;;;9.40;;
12597;SDS011;6364;53.590;9.956;2023-07-22T05:39:57;18.77;;;9.20;;
12597;SDS011;6364;53.590;9.956;2023-07-22T05:42:22;19.35;;;8.80;;
12597;SDS011;6364;53.590;9.956;2023-07-22T05:44:48;18.05;;;8.43;;
12597;SDS011;6364;53.590;9.956;2023-07-22T05:47:13;16.38;;;8.63;;
12597;SDS011;6364;53.590;9.956;2023-07-22T05:49:39;15.10;;;8.02;;
12597;SDS011;6364;53.590;9.956;2023-07-22T05:52:04;16.33;;;8.00;;
12597;SDS011;6364;53.590;9.956;2023-07-22T05:54:30;16.13;;;7.85;;
12597;SDS011;6364;53.590;9.956;2023-07-22T05:56:55;11.95;;;7.65;;
12597;SDS011;6364;53.590;9.956;2023-07-22T05:59:20;14.10;;;7.82;;
12597;SDS011;6364;53.590;9.956;2023-07-22T06:01:46;14.95;;;7.28;;
12597;SDS011;6364;53.590;9.956;2023-07-22T06:04:11;13.43;;;6.70;;
12597;SDS011;6364;53.590;9.956;2023-07-22T06:06:36;14.68;;;7.07;;
12597;SDS011;6364;53.590;9.956;2023-07-22T06:09:02;15.70;;;6.70;;
12597;SDS011;6364;53.590;9.956;2023-07-22T06:11:27;19.17;;;6.90;;
12597;SDS011;6364;53.590;9.956;2023-07-22T06:13:53;12.73;;;6.63;;
12597;SDS011;6364;53.590;9.956;2023-07-22T06:16:19;13.88;;;6.82;;
12597;SDS011;6364;53.590;9.956;2023-07-22T06:18:44;16.92;;;6.97;;
12597;SDS011;6364;53.590;9.956;2023-07-22T06:21:09;9.80;;;6.75;;
12597;SDS011;6364;53.590;9.956;2023-07-22T06:23:35;11.80;;;6.07;;
12597;SDS011;6364;53.590;9.956;2023-07-22T06:26:01;12.02;;;6.13;;
12597;SDS011;6364;53.590;9.956;2023-07-22T06:28:27;11.23;;;6.15;;
12597;SDS011;6364;53.590;9.956;2023-07-22T06:30:52;11.90;;;5.55;;
12597;SDS011;6364;53.590;9.956;2023-07-22T06:33:17;10.80;;;6.05;;
12597;SDS011;6364;53.590;9.956;2023-07-22T06:35:43;10.85;;;5.50;;
12597;SDS011;6364;53.590;9.956;2023-07-22T06:38:08;9.32;;;5.28;;
12597;SDS011;6364;53.590;9.956;2023-07-22T06:40:33;13.05;;;5.22;;
12597;SDS011;6364;53.590;9.956;2023-07-22T06:42:59;10.77;;;5.32;;
12597;SDS011;6364;53.590;9.956;2023-07-22T06:45:24;11.15;;;4.78;;
12597;SDS011;6364;53.590;9.956;2023-07-22T06:47:49;13.63;;;5.05;;
12597;SDS011;6364;53.590;9.956;2023-07-22T06:50:15;8.27;;;4.13;;
12597;SDS011;6364;53.590;9.956;2023-07-22T06:52:40;9.70;;;4.03;;
12597;SDS011;6364;53.590;9.956;2023-07-22T06:55:05;10.48;;;3.95;;
12597;SDS011;6364;53.590;9.956;2023-07-22T06:57:32;7.10;;;3.63;;
12597;SDS011;6364;53.590;9.956;2023-07-22T06:59:58;6.53;;;3.38;;
12597;SDS011;6364;53.590;9.956;2023-07-22T07:02:23;7.35;;;3.38;;
12597;SDS011;6364;53.590;9.956;2023-07-22T07:04:49;7.40;;;3.88;;
12597;SDS011;6364;53.590;9.956;2023-07-22T07:07:15;6.57;;;3.50;;
12597;SDS011;6364;53.590;9.956;2023-07-22T07:09:42;9.57;;;3.45;;
12597;SDS011;6364;53.590;9.956;2023-07-22T07:12:07;6.68;;;3.55;;
12597;SDS011;6364;53.590;9.956;2023-07-22T07:14:33;7.43;;;3.30;;
12597;SDS011;6364;53.590;9.956;2023-07-22T07:16:59;7.80;;;3.35;;
12597;SDS011;6364;53.590;9.956;2023-07-22T07:19:24;7.03;;;3.20;;
12597;SDS011;6364;53.590;9.956;2023-07-22T07:21:49;10.73;;;3.17;;
12597;SDS011;6364;53.590;9.956;2023-07-22T07:24:15;5.75;;;2.85;;
12597;SDS011;6364;53.590;9.956;2023-07-22T07:26:41;4.68;;;2.80;;
12597;SDS011;6364;53.590;9.956;2023-07-22T07:29:06;5.05;;;2.58;;
12597;SDS011;6364;53.590;9.956;2023-07-22T07:31:31;5.43;;;2.83;;
12597;SDS011;6364;53.590;9.956;2023-07-22T07:33:57;11.57;;;2.90;;
12597;SDS011;6364;53.590;9.956;2023-07-22T07:36:22;8.63;;;2.80;;
12597;SDS011;6364;53.590;9.956;2023-07-22T07:38:48;6.15;;;2.50;;
12597;SDS011;6364;53.590;9.956;2023-07-22T07:41:13;7.90;;;2.70;;
12597;SDS011;6364;53.590;9.956;2023-07-22T07:43:39;4.40;;;2.08;;
12597;SDS011;6364;53.590;9.956;2023-07-22T07:48:45;3.95;;;1.95;;
12597;SDS011;6364;53.590;9.956;2023-07-22T07:51:12;6.60;;;2.28;;
12597;SDS011;6364;53.590;9.956;2023-07-22T07:53:41;5.25;;;2.47;;
12597;SDS011;6364;53.590;9.956;2023-07-22T07:56:08;4.35;;;2.30;;
12597;SDS011;6364;53.590;9.956;2023-07-22T07:58:34;5.97;;;2.35;;
12597;SDS011;6364;53.590;9.956;2023-07-22T08:00:59;7.03;;;2.78;;
12597;SDS011;6364;53.590;9.956;2023-07-22T08:03:24;3.88;;;2.35;;
12597;SDS011;6364;53.590;9.956;2023-07-22T08:05:50;4.30;;;1.70;;
12597;SDS011;6364;53.590;9.956;2023-07-22T08:08:15;2.85;;;1.77;;
12597;SDS011;6364;53.590;9.956;2023-07-22T08:10:41;7.65;;;2.53;;
12597;SDS011;6364;53.590;9.956;2023-07-22T08:13:08;5.93;;;2.00;;
12597;SDS011;6364;53.590;9.956;2023-07-22T08:15:33;5.32;;;1.80;;
12597;SDS011;6364;53.590;9.956;2023-07-22T08:17:59;3.50;;;1.50;;
12597;SDS011;6364;53.590;9.956;2023-07-22T08:20:24;6.22;;;1.80;;
12597;SDS011;6364;53.590;9.956;2023-07-22T08:22:50;3.40;;;1.88;;
12597;SDS011;6364;53.590;9.956;2023-07-22T08:25:15;2.72;;;1.90;;
12597;SDS011;6364;53.590;9.956;2023-07-22T08:27:40;3.67;;;2.08;;
12597;SDS011;6364;53.590;9.956;2023-07-22T08:30:06;4.13;;;1.80;;
12597;SDS011;6364;53.590;9.956;2023-07-22T08:32:32;3.80;;;1.75;;
12597;SDS011;6364;53.590;9.956;2023-07-22T08:34:57;2.80;;;1.60;;
12597;SDS011;6364;53.590;9.956;2023-07-22T08:37:22;3.47;;;1.40;;
12597;SDS011;6364;53.590;9.956;2023-07-22T08:39:48;4.28;;;0.95;;
12597;SDS011;6364;53.590;9.956;2023-07-22T08:42:13;2.22;;;0.90;;
12597;SDS011;6364;53.590;9.956;2023-07-22T08:44:41;3.45;;;1.55;;
12597;SDS011;6364;53.590;9.956;2023-07-22T08:47:08;4.63;;;1.60;;
12597;SDS011;6364;53.590;9.956;2023-07-22T08:49:35;3.67;;;1.23;;
12597;SDS011;6364;53.590;9.956;2023-07-22T08:52:00;2.47;;;1.33;;
12597;SDS011;6364;53.590;9.956;2023-07-22T08:54:26;3.78;;;1.75;;
12597;SDS011;6364;53.590;9.956;2023-07-22T08:56:53;2.00;;;1.30;;
12597;SDS011;6364;53.590;9.956;2023-07-22T08:59:18;3.13;;;1.38;;
12597;SDS011;6364;53.590;9.956;2023-07-22T09:01:44;3.08;;;1.70;;
12597;SDS011;6364;53.590;9.956;2023-07-22T09:04:09;2.22;;;1.42;;
12597;SDS011;6364;53.590;9.956;2023-07-22T09:06:35;2.25;;;1.67;;
12597;SDS011;6364;53.590;9.956;2023-07-22T09:09:01;2.78;;;1.27;;
12597;SDS011;6364;53.590;9.956;2023-07-22T09:11:29;1.85;;;1.10;;
12597;SDS011;6364;53.590;9.956;2023-07-22T09:13:54;2.65;;;1.20;;
12597;SDS011;6364;53.590;9.956;2023-07-22T09:16:20;1.65;;;1.40;;
12597;SDS011;6364;53.590;9.956;2023-07-22T09:18:46;1.98;;;1.40;;
12597;SDS011;6364;53.590;9.956;2023-07-22T09:21:11;2.72;;;1.23;;
12597;SDS011;6364;53.590;9.956;2023-07-22T09:23:37;3.70;;;1.33;;
12597;SDS011;6364;53.590;9.956;2023-07-22T09:26:10;2.92;;;1.48;;
12597;SDS011;6364;53.590;9.956;2023-07-22T09:28:49;2.00;;;1.33;;
12597;SDS011;6364;53.590;9.956;2023-07-22T09:31:24;3.50;;;1.30;;
12597;SDS011;6364;53.590;9.956;2023-07-22T09:33:50;4.15;;;1.33;;
12597;SDS011;6364;53.590;9.956;2023-07-22T09:36:16;2.95;;;1.38;;
12597;SDS011;6364;53.590;9.956;2023-07-22T09:38:42;2.58;;;1.50;;
12597;SDS011;6364;53.590;9.956;2023-07-22T09:41:07;2.22;;;1.45;;
12597;SDS011;6364;53.590;9.956;2023-07-22T09:43:37;2.38;;;1.60;;
12597;SDS011;6364;53.590;9.956;2023-07-22T09:46:09;2.10;;;1.42;;
12597;SDS011;6364;53.590;9.956;2023-07-22T09:48:44;1.63;;;1.25;;
12597;SDS011;6364;53.590;9.956;2023-07-22T09:51:16;3.63;;;1.42;;
12597;SDS011;6364;53.590;9.956;2023-07-22T09:53:45;2.75;;;1.40;;
12597;SDS011;6364;53.590;9.956;2023-07-22T09:56:12;3.10;;;1.40;;
12597;SDS011;6364;53.590;9.956;2023-07-22T09:58:38;1.95;;;1.42;;
12597;SDS011;6364;53.590;9.956;2023-07-22T10:01:03;2.78;;;1.48;;
12597;SDS011;6364;53.590;9.956;2023-07-22T10:03:29;3.25;;;1.27;;
12597;SDS011;6364;53.590;9.956;2023-07-22T10:05:56;3.15;;;1.63;;
12597;SDS011;6364;53.590;9.956;2023-07-22T10:08:24;2.60;;;1.25;;
12597;SDS011;6364;53.590;9.956;2023-07-22T10:10:51;1.95;;;1.23;;
12597;SDS011;6364;53.590;9.956;2023-07-22T10:13:18;3.03;;;1.23;;
12597;SDS011;6364;53.590;9.956;2023-07-22T10:15:44;2.78;;;2.00;;
12597;SDS011;6364;53.590;9.956;2023-07-22T10:18:10;3.28;;;1.80;;
12597;SDS011;6364;53.590;9.956;2023-07-22T10:20:36;3.38;;;1.90;;
12597;SDS011;6364;53.590;9.956;2023-07-22T10:23:01;3.80;;;1.70;;
12597;SDS011;6364;53.590;9.956;2023-07-22T10:25:28;2.25;;;1.55;;
12597;SDS011;6364;53.590;9.956;2023-07-22T10:27:54;2.35;;;1.73;;
12597;SDS011;6364;53.590;9.956;2023-07-22T10:30:20;1.95;;;1.55;;
12597;SDS011;6364;53.590;9.956;2023-07-22T10:32:49;4.13;;;1.92;;
12597;SDS011;6364;53.590;9.956;2023-07-22T10:35:40;2.65;;;1.83;;
12597;SDS011;6364;53.590;9.956;2023-07-22T10:38:07;1.95;;;1.55;;
12597;SDS011;6364;53.590;9.956;2023-07-22T10:40:35;2.25;;;1.70;;
12597;SDS011;6364;53.590;9.956;2023-07-22T10:43:14;2.90;;;1.80;;
12597;SDS011;6364;53.590;9.956;2023-07-22T10:45:44;3.63;;;1.85;;
12597;SDS011;6364;53.590;9.956;2023-07-22T10:48:14;3.70;;;1.90;;
12597;SDS011;6364;53.590;9.956;2023-07-22T10:50:43;2.20;;;1.70;;
12597;SDS011;6364;53.590;9.956;2023-07-22T11:01:21;3.83;;;1.90;;
12597;SDS011;6364;53.590;9.956;2023-07-22T11:07:00;3.00;;;1.80;;
12597;SDS011;6364;53.590;9.956;2023-07-22T11:11:56;3.38;;;2.10;;
12597;SDS011;6364;53.590;9.956;2023-07-22T11:14:24;3.88;;;2.20;;
12597;SDS011;6364;53.590;9.956;2023-07-22T11:16:50;4.43;;;2.35;;
12597;SDS011;6364;53.590;9.956;2023-07-22T11:19:17;3.15;;;2.50;;
12597;SDS011;6364;53.590;9.956;2023-07-22T11:21:45;2.47;;;2.15;;
12597;SDS011;6364;53.590;9.956;2023-07-22T11:24:11;4.85;;;3.10;;
12597;SDS011;6364;53.590;9.956;2023-07-22T11:26:37;6.95;;;3.17;;
12597;SDS011;6364;53.590;9.956;2023-07-22T11:29:03;3.90;;;2.60;;
12597;SDS011;6364;53.590;9.956;2023-07-22T11:31:32;8.30;;;3.22;;
12597;SDS011;6364;53.590;9.956;2023-07-22T11:34:07;4.53;;;2.97;;
12597;SDS011;6364;53.590;9.956;2023-07-22T11:36:33;5.05;;;3.40;;
12597;SDS011;6364;53.590;9.956;2023-07-22T11:39:01;6.18;;;3.15;;
12597;SDS011;6364;53.590;9.956;2023-07-22T11:41:34;4.80;;;3.10;;
12597;SDS011;6364;53.590;9.956;2023-07-22T11:44:00;5.30;;;3.17;;
12597;SDS011;6364;53.590;9.956;2023-07-22T11:46:27;4.43;;;2.90;;
12597;SDS011;6364;53.590;9.956;2023-07-22T11:48:53;4.60;;;2.90;;
12597;SDS011;6364;53.590;9.956;2023-07-22T11:51:22;3.65;;;2.88;;
12597;SDS011;6364;53.590;9.956;2023-07-22T11:53:49;5.10;;;3.50;;
12597;SDS011;6364;53.590;9.956;2023-07-22T11:56:23;6.03;;;3.30;;
12597;SDS011;6364;53.590;9.956;2023-07-22T11:58:58;6.57;;;3.25;;
12597;SDS011;6364;53.590;9.956;2023-07-22T12:01:23;5.90;;;4.05;;
12597;SDS011;6364;53.590;9.956;2023-07-22T12:03:49;6.25;;;3.50;;
12597;SDS011;6364;53.590;9.956;2023-07-22T12:06:20;7.38;;;4.00;;
12597;SDS011;6364;53.590;9.956;2023-07-22T12:08:51;4.97;;;3.65;;
12597;SDS011;6364;53.590;9.956;2023-07-22T12:11:17;6.45;;;3.65;;
12597;SDS011;6364;53.590;9.956;2023-07-22T12:14:08;6.55;;;4.43;;
12597;SDS011;6364;53.590;9.956;2023-07-22T12:16:37;4.93;;;3.60;;
12597;SDS011;6364;53.590;9.956;2023-07-22T12:19:04;6.45;;;4.00;;
12597;SDS011;6364;53.590;9.956;2023-07-22T12:21:30;7.38;;;4.00;;
12597;SDS011;6364;53.590;9.956;2023-07-22T12:23:56;6.20;;;4.03;;
12597;SDS011;6364;53.590;9.956;2023-07-22T12:26:21;6.35;;;4.32;;
12597;SDS011;6364;53.590;9.956;2023-07-22T12:28:47;6.47;;;4.32;;
12597;SDS011;6364;53.590;9.956;2023-07-22T12:31:12;5.88;;;4.25;;
12597;SDS011;6364;53.590;9.956;2023-07-22T12:33:37;6.18;;;3.97;;
12597;SDS011;6364;53.590;9.956;2023-07-22T12:36:03;6.07;;;4.22;;
12597;SDS011;6364;53.590;9.956;2023-07-22T12:38:28;6.53;;;4.70;;
12597;SDS011;6364;53.590;9.956;2023-07-22T12:40:54;7.15;;;4.90;;
12597;SDS011;6364;53.590;9.956;2023-07-22T12:43:19;7.13;;;4.70;;
12597;SDS011;6364;53.590;9.956;2023-07-22T12:45:44;7.93;;;4.60;;
12597;SDS011;6364;53.590;9.956;2023-07-22T12:48:10;7.43;;;4.80;;
12597;SDS011;6364;53.590;9.956;2023-07-22T12:50:35;7.60;;;4.85;;
12597;SDS011;6364;53.590;9.956;2023-07-22T12:53:01;6.93;;;5.05;;
12597;SDS011;6364;53.590;9.956;2023-07-22T12:55:27;7.20;;;5.30;;
12597;SDS011;6364;53.590;9.956;2023-07-22T12:57:53;7.88;;;5.32;;
12597;SDS011;6364;53.590;9.956;2023-07-22T13:00:18;9.45;;;5.25;;
12597;SDS011;6364;53.590;9.956;2023-07-22T13:02:44;8.82;;;5.13;;
12597;SDS011;6364;53.590;9.956;2023-07-22T13:05:09;8.48;;;5.40;;
12597;SDS011;6364;53.590;9.956;2023-07-22T13:07:34;8.00;;;5.65;;
12597;SDS011;6364;53.590;9.956;2023-07-22T13:10:00;7.43;;;5.22;;
12597;SDS011;6364;53.590;9.956;2023-07-22T13:12:27;9.73;;;5.63;;
12597;SDS011;6364;53.590;9.956;2023-07-22T13:14:53;9.57;;;5.72;;
12597;SDS011;6364;53.590;9.956;2023-07-22T13:17:18;8.43;;;6.00;;
12597;SDS011;6364;53.590;9.956;2023-07-22T13:19:44;9.27;;;6.00;;
12597;SDS011;6364;53.590;9.956;2023-07-22T13:22:09;9.20;;;6.38;;
12597;SDS011;6364;53.590;9.956;2023-07-22T13:24:34;10.68;;;6.40;;
12597;SDS011;6364;53.590;9.956;2023-07-22T13:27:00;9.50;;;6.25;;
12597;SDS011;6364;53.590;9.956;2023-07-22T13:29:25;8.32;;;6.13;;
12597;SDS011;6364;53.590;9.956;2023-07-22T13:31:51;12.15;;;6.82;;
12597;SDS011;6364;53.590;9.956;2023-07-22T13:34:16;10.73;;;6.65;;
12597;SDS011;6364;53.590;9.956;2023-07-22T13:36:42;11.02;;;7.45;;
12597;SDS011;6364;53.590;9.956;2023-07-22T13:39:07;12.52;;;7.25;;
12597;SDS011;6364;53.590;9.956;2023-07-22T13:41:32;12.75;;;7.63;;
12597;SDS011;6364;53.590;9.956;2023-07-22T13:43:58;14.75;;;8.13;;
12597;SDS011;6364;53.590;9.956;2023-07-22T13:46:23;14.45;;;7.90;;
12597;SDS011;6364;53.590;9.956;2023-07-22T13:48:48;14.85;;;8.52;;
12597;SDS011;6364;53.590;9.956;2023-07-22T13:51:14;14.18;;;8.35;;
12597;SDS011;6364;53.590;9.956;2023-07-22T13:53:39;18.25;;;8.63;;
12597;SDS011;6364;53.590;9.956;2023-07-22T13:56:04;13.85;;;8.68;;
12597;SDS011;6364;53.590;9.956;2023-07-22T13:58:30;13.35;;;8.07;;
12597;SDS011;6364;53.590;9.956;2023-07-22T14:00:55;14.05;;;8.57;;
12597;SDS011;6364;53.590;9.956;2023-07-22T14:03:20;15.38;;;8.50;;
12597;SDS011;6364;53.590;9.956;2023-07-22T14:05:46;15.73;;;8.95;;
12597;SDS011;6364;53.590;9.956;2023-07-22T14:08:12;15.18;;;8.40;;
12597;SDS011;6364;53.590;9.956;2023-07-22T14:10:37;12.45;;;7.65;;
12597;SDS011;6364;53.590;9.956;2023-07-22T14:13:02;15.85;;;8.00;;
12597;SDS011;6364;53.590;9.956;2023-07-22T14:15:28;12.05;;;8.20;;
12597;SDS011;6364;53.590;9.956;2023-07-22T14:17:53;12.27;;;8.48;;
12597;SDS011;6364;53.590;9.956;2023-07-22T14:20:19;15.02;;;7.82;;
12597;SDS011;6364;53.590;9.956;2023-07-22T14:22:44;14.18;;;7.88;;
12597;SDS011;6364;53.590;9.956;2023-07-22T14:25:10;11.25;;;7.32;;
12597;SDS011;6364;53.590;9.956;2023-07-22T14:27:37;10.43;;;5.97;;
12597;SDS011;6364;53.590;9.956;2023-07-22T14:30:03;7.93;;;5.70;;
12597;SDS011;6364;53.590;9.956;2023-07-22T14:32:30;10.93;;;6.03;;
12597;SDS011;6364;53.590;9.956;2023-07-22T14:34:56;8.50;;;5.45;;
12597;SDS011;6364;53.590;9.956;2023-07-22T14:37:21;9.07;;;5.47;;
12597;SDS011;6364;53.590;9.956;2023-07-22T14:39:53;6.88;;;5.10;;
12597;SDS011;6364;53.590;9.956;2023-07-22T14:42:18;9.77;;;5.80;;
12597;SDS011;6364;53.590;9.956;2023-07-22T14:44:44;6.63;;;4.93;;
12597;SDS011;6364;53.590;9.956;2023-07-22T14:47:10;7.43;;;5.10;;
12597;SDS011;6364;53.590;9.956;2023-07-22T14:49:35;9.23;;;5.15;;
12597;SDS011;6364;53.590;9.956;2023-07-22T14:52:00;7.97;;;4.80;;
12597;SDS011;6364;53.590;9.956;2023-07-22T14:54:26;6.35;;;4.63;;
12597;SDS011;6364;53.590;9.956;2023-07-22T14:56:51;8.38;;;4.70;;
12597;SDS011;6364;53.590;9.956;2023-07-22T14:59:16;7.47;;;4.68;;
12597;SDS011;6364;53.590;9.956;2023-07-22T15:01:42;6.97;;;4.93;;